createdAt,value
2017-12-01T00:00:09.880Z,4.50
2017-12-01T00:02:38.315Z,4.50
2017-12-01T00:05:06.763Z,4.50
2017-12-01T00:07:35.152Z,4.60
2017-12-01T00:10:04.999Z,4.60
2017-12-01T00:12:33.363Z,4.60
2017-12-01T00:15:02.248Z,4.70
2017-12-01T00:17:30.627Z,4.70
2017-12-01T00:19:59.014Z,4.60
2017-12-01T00:22:27.372Z,4.50
2017-12-01T00:24:55.734Z,4.60
2017-12-01T00:27:25.283Z,4.70
2017-12-01T00:29:53.630Z,4.60
2017-12-01T00:32:22.118Z,4.70
2017-12-01T00:34:52.201Z,4.80
2017-12-01T00:37:21.395Z,4.60
2017-12-01T00:39:49.426Z,4.60
2017-12-01T00:42:17.841Z,4.50
2017-12-01T00:44:46.216Z,4.50
2017-12-01T00:47:14.770Z,4.60
2017-12-01T00:49:43.196Z,4.50
2017-12-01T00:52:11.582Z,4.60
2017-12-01T00:54:39.914Z,4.60
2017-12-01T00:57:08.865Z,4.60
2017-12-01T00:59:37.053Z,4.50
2017-12-01T01:02:05.393Z,4.60
2017-12-01T01:04:33.758Z,4.60
2017-12-01T01:07:02.106Z,4.60
2017-12-01T01:09:31.628Z,4.50
2017-12-01T01:12:00.004Z,4.50
2017-12-01T01:14:28.354Z,4.40
2017-12-01T01:16:58.095Z,4.60
2017-12-01T01:19:26.459Z,4.50
2017-12-01T01:21:54.767Z,4.60
2017-12-01T01:24:22.927Z,4.50
2017-12-01T01:26:51.250Z,4.50
2017-12-01T01:29:20.358Z,4.50
2017-12-01T01:31:48.921Z,4.50
2017-12-01T01:34:17.246Z,4.60
2017-12-01T01:36:45.597Z,4.60
2017-12-01T01:39:13.980Z,4.80
2017-12-01T01:41:42.962Z,4.90
2017-12-01T01:44:11.472Z,4.90
2017-12-01T01:46:42.184Z,4.90
2017-12-01T01:49:10.318Z,4.90
2017-12-01T01:51:38.103Z,4.80
2017-12-01T01:54:06.964Z,4.90
2017-12-01T01:56:35.463Z,4.90
2017-12-01T01:59:03.334Z,4.90
2017-12-01T02:01:31.145Z,4.80
2017-12-01T02:03:59.697Z,4.70
2017-12-01T02:06:28.026Z,4.70
2017-12-01T02:08:55.694Z,4.70
2017-12-01T02:11:23.898Z,4.60
2017-12-01T02:13:51.985Z,4.50
2017-12-01T02:16:20.313Z,4.50
2017-12-01T02:18:48.366Z,4.60
2017-12-01T02:21:16.055Z,4.60
2017-12-01T02:23:43.726Z,4.60
2017-12-01T02:26:11.539Z,4.70
2017-12-01T02:28:39.207Z,4.70
2017-12-01T02:31:06.968Z,4.70
2017-12-01T02:33:36.483Z,4.70
2017-12-01T02:36:04.187Z,4.80
2017-12-01T02:38:32.228Z,4.70
2017-12-01T02:40:59.930Z,4.70
2017-12-01T02:43:27.619Z,4.70
2017-12-01T02:45:55.320Z,4.80
2017-12-01T02:48:22.994Z,4.70
2017-12-01T02:50:50.662Z,4.70
2017-12-01T02:53:19.197Z,4.70
2017-12-01T02:55:47.626Z,4.70
2017-12-01T02:58:15.302Z,4.70
2017-12-01T03:00:43.203Z,4.70
2017-12-01T03:03:11.654Z,4.80
2017-12-01T03:05:39.396Z,4.80
2017-12-01T03:08:07.883Z,4.90
2017-12-01T03:10:35.550Z,4.90
2017-12-01T03:13:03.221Z,4.70
2017-12-01T03:15:31.926Z,4.60
2017-12-01T03:18:00.446Z,4.60
2017-12-01T03:20:28.214Z,4.70
2017-12-01T03:22:55.902Z,4.60
2017-12-01T03:25:23.710Z,4.60
2017-12-01T03:27:51.480Z,4.50
2017-12-01T03:30:19.523Z,4.40
2017-12-01T03:32:47.406Z,4.40
2017-12-01T03:35:15.107Z,4.40
2017-12-01T03:37:46.061Z,4.40
2017-12-01T03:40:13.768Z,4.30
2017-12-01T03:42:42.156Z,4.40
2017-12-01T03:45:11.726Z,4.30
2017-12-01T03:47:39.386Z,4.30
2017-12-01T03:50:07.809Z,4.30
2017-12-01T03:52:35.644Z,4.30
2017-12-01T03:55:03.685Z,4.30
2017-12-01T03:57:32.967Z,4.30
2017-12-01T04:00:01.467Z,4.30
2017-12-01T04:02:29.125Z,4.30
2017-12-01T04:04:57.216Z,4.30
2017-12-01T04:07:24.888Z,4.40
2017-12-01T04:09:52.644Z,4.30
2017-12-01T04:12:20.321Z,4.40
2017-12-01T04:14:48.914Z,4.40
2017-12-01T04:17:16.575Z,4.30
2017-12-01T04:19:45.204Z,4.40
2017-12-01T04:22:12.985Z,4.50
2017-12-01T04:24:40.844Z,4.50
2017-12-01T04:27:10.607Z,4.60
2017-12-01T04:29:38.318Z,4.60
2017-12-01T04:32:06.278Z,4.60
2017-12-01T04:34:33.930Z,4.70
2017-12-01T04:37:01.603Z,4.70
2017-12-01T04:39:29.268Z,4.80
2017-12-01T04:41:56.937Z,4.80
2017-12-01T04:44:24.779Z,4.80
2017-12-01T04:46:52.479Z,4.70
2017-12-01T04:49:20.133Z,4.70
2017-12-01T04:51:47.817Z,4.80
2017-12-01T04:54:15.833Z,4.80
2017-12-01T04:56:43.497Z,4.80
2017-12-01T04:59:11.199Z,4.70
2017-12-01T05:01:38.872Z,4.60
2017-12-01T05:04:06.544Z,4.50
2017-12-01T05:06:34.329Z,4.50
2017-12-01T05:09:02.074Z,4.50
2017-12-01T05:11:29.750Z,4.40
2017-12-01T05:13:57.426Z,4.40
2017-12-01T05:16:25.094Z,4.40
2017-12-01T05:18:52.824Z,4.30
2017-12-01T05:21:20.489Z,4.30
2017-12-01T05:23:48.453Z,4.30
2017-12-01T05:26:16.122Z,4.30
2017-12-01T05:28:43.974Z,4.30
2017-12-01T05:31:11.630Z,4.30
2017-12-01T05:33:39.303Z,4.30
2017-12-01T05:36:06.991Z,4.20
2017-12-01T05:38:34.682Z,4.10
2017-12-01T05:41:03.407Z,3.90
2017-12-01T05:43:31.085Z,3.90
2017-12-01T05:45:58.921Z,3.80
2017-12-01T05:48:26.586Z,3.70
2017-12-01T05:50:54.255Z,3.70
2017-12-01T05:53:22.069Z,3.60
2017-12-01T05:55:49.782Z,3.60
2017-12-01T05:58:17.581Z,3.70
2017-12-01T06:00:45.283Z,3.70
2017-12-01T06:03:12.965Z,3.70
2017-12-01T06:05:40.679Z,3.70
2017-12-01T06:08:09.128Z,3.70
2017-12-01T06:10:36.805Z,3.70
2017-12-01T06:13:05.274Z,3.70
2017-12-01T06:15:32.943Z,3.70
2017-12-01T06:18:01.428Z,3.80
2017-12-01T06:20:29.093Z,3.70
2017-12-01T06:22:57.539Z,3.80
2017-12-01T06:25:25.197Z,3.80
2017-12-01T06:27:52.878Z,3.80
2017-12-01T06:30:20.547Z,3.80
2017-12-01T06:32:48.277Z,3.90
2017-12-01T06:35:15.962Z,3.90
2017-12-01T06:37:44.399Z,3.90
2017-12-01T06:40:12.213Z,3.90
2017-12-01T06:42:39.908Z,3.90
2017-12-01T06:45:07.783Z,3.90
2017-12-01T06:47:36.060Z,3.90
2017-12-01T06:50:03.806Z,3.90
2017-12-01T06:52:31.549Z,3.90
2017-12-01T06:54:59.324Z,4.00
2017-12-01T06:57:28.978Z,3.90
2017-12-01T06:59:57.157Z,3.90
2017-12-01T07:02:25.162Z,3.90
2017-12-01T07:04:52.845Z,3.90
2017-12-01T07:07:20.832Z,3.90
2017-12-01T07:09:49.170Z,3.80
2017-12-01T07:12:17.492Z,3.80
2017-12-01T07:14:45.834Z,3.90
2017-12-01T07:17:14.172Z,3.90
2017-12-01T07:19:42.520Z,4.00
2017-12-01T07:22:10.988Z,3.90
2017-12-01T07:24:39.188Z,3.90
2017-12-01T07:27:11.044Z,4.00
2017-12-01T07:29:39.647Z,3.90
2017-12-01T07:32:07.989Z,3.90
2017-12-01T07:34:37.090Z,3.90
2017-12-01T07:37:05.423Z,3.90
2017-12-01T07:39:33.764Z,3.90
2017-12-01T07:42:01.921Z,3.90
2017-12-01T07:44:30.978Z,3.90
2017-12-01T07:46:59.505Z,3.90
2017-12-01T07:49:27.627Z,3.90
2017-12-01T07:51:55.780Z,3.80
2017-12-01T07:54:23.913Z,3.80
2017-12-01T07:56:52.294Z,3.70
2017-12-01T07:59:20.435Z,3.70
2017-12-01T08:01:49.355Z,3.80
2017-12-01T08:04:17.500Z,3.80
2017-12-01T08:06:46.433Z,3.80
2017-12-01T08:09:14.599Z,3.80
2017-12-01T08:11:42.741Z,3.80
2017-12-01T08:14:10.927Z,3.90
2017-12-01T08:16:50.442Z,3.90
2017-12-01T08:19:22.285Z,4.10
2017-12-01T08:22:01.457Z,4.10
2017-12-01T08:24:40.755Z,4.10
2017-12-01T08:27:09.671Z,4.20
2017-12-01T08:29:37.827Z,4.20
2017-12-01T08:32:06.055Z,4.20
2017-12-01T08:34:34.423Z,4.20
2017-12-01T08:37:02.760Z,4.30
2017-12-01T08:39:31.098Z,4.30
2017-12-01T08:42:00.195Z,4.20
2017-12-01T08:44:28.524Z,4.10
2017-12-01T08:46:56.847Z,4.20
2017-12-01T08:49:25.947Z,4.30
2017-12-01T08:51:53.975Z,4.30
2017-12-01T08:57:16.554Z,4.30
2017-12-01T08:59:44.595Z,4.30
2017-12-01T09:02:13.044Z,4.30
2017-12-01T09:04:41.382Z,4.20
2017-12-01T09:07:09.722Z,4.20
2017-12-01T09:09:38.045Z,4.10
2017-12-01T09:12:06.378Z,4.00
2017-12-01T09:14:34.708Z,4.00
2017-12-01T09:17:02.877Z,4.10
2017-12-01T09:19:31.202Z,4.10
2017-12-01T09:21:59.534Z,4.00
2017-12-01T09:24:27.550Z,4.00
2017-12-01T09:26:55.390Z,4.00
2017-12-01T09:29:23.723Z,3.90
2017-12-01T09:31:52.063Z,3.90
2017-12-01T09:34:20.418Z,3.90
2017-12-01T09:36:48.766Z,3.90
2017-12-01T09:39:17.090Z,3.80
2017-12-01T09:41:44.802Z,3.90
2017-12-01T09:44:12.972Z,3.90
2017-12-01T09:46:40.789Z,3.90
2017-12-01T09:49:09.895Z,4.10
2017-12-01T09:51:39.153Z,4.10
2017-12-01T09:54:07.706Z,4.30
2017-12-01T09:56:35.933Z,4.30
2017-12-01T09:59:04.260Z,4.40
2017-12-01T10:01:32.696Z,4.50
2017-12-01T10:04:01.274Z,4.50
2017-12-01T10:06:29.611Z,4.50
2017-12-01T10:08:57.942Z,4.50
2017-12-01T10:11:26.343Z,4.50
2017-12-01T10:13:54.820Z,4.50
2017-12-01T10:16:23.189Z,4.50
2017-12-01T10:18:51.510Z,4.50
2017-12-01T10:21:19.851Z,4.60
2017-12-01T10:23:48.173Z,4.60
2017-12-01T10:26:17.281Z,4.70
2017-12-01T10:28:45.314Z,4.70
2017-12-01T10:31:13.648Z,4.80
2017-12-01T10:33:41.984Z,5.00
2017-12-01T10:36:10.108Z,5.10
2017-12-01T10:38:38.094Z,5.20
2017-12-01T10:41:06.335Z,5.30
2017-12-01T10:43:33.825Z,5.30
2017-12-01T10:46:01.968Z,5.20
2017-12-01T10:48:31.080Z,5.10
2017-12-01T10:50:59.415Z,5.00
2017-12-01T10:53:28.157Z,4.90
2017-12-01T10:55:56.693Z,4.90
2017-12-01T10:58:25.526Z,4.90
2017-12-01T11:00:53.882Z,5.00
2017-12-01T11:03:22.278Z,5.00
2017-12-01T11:05:50.610Z,5.10
2017-12-01T11:08:18.938Z,5.30
2017-12-01T11:10:47.314Z,5.50
2017-12-01T11:13:15.656Z,5.60
2017-12-01T11:15:44.005Z,5.70
2017-12-01T11:18:12.405Z,5.90
2017-12-01T11:20:40.761Z,5.90
2017-12-01T11:23:09.448Z,5.80
2017-12-01T11:25:37.868Z,5.80
2017-12-01T11:28:06.306Z,5.70
2017-12-01T11:30:34.630Z,5.60
2017-12-01T11:33:02.962Z,5.50
2017-12-01T11:35:31.294Z,5.60
2017-12-01T11:38:00.402Z,5.80
2017-12-01T11:40:28.787Z,5.80
2017-12-01T11:42:57.127Z,5.90
2017-12-01T11:45:25.466Z,5.90
2017-12-01T11:47:53.814Z,5.90
2017-12-01T11:50:22.498Z,5.90
2017-12-01T11:52:50.501Z,5.80
2017-12-01T11:55:18.199Z,5.70
2017-12-01T11:57:45.869Z,5.70
2017-12-01T12:00:13.548Z,5.60
2017-12-01T12:02:41.541Z,5.50
2017-12-01T12:05:09.552Z,5.50
2017-12-01T12:07:37.898Z,5.40
2017-12-01T12:10:06.241Z,5.30
2017-12-01T12:12:34.330Z,5.30
2017-12-01T12:15:02.059Z,5.30
2017-12-01T12:17:30.050Z,5.40
2017-12-01T12:19:58.000Z,5.50
2017-12-01T12:22:26.002Z,5.50
2017-12-01T12:24:53.670Z,5.50
2017-12-01T12:27:21.786Z,5.50
2017-12-01T12:29:49.786Z,5.40
2017-12-01T12:32:17.482Z,5.40
2017-12-01T12:34:45.192Z,5.40
2017-12-01T12:37:14.656Z,5.30
2017-12-01T12:39:42.745Z,5.30
2017-12-01T12:42:10.407Z,5.30
2017-12-01T12:44:38.419Z,5.20
2017-12-01T12:47:06.238Z,5.20
2017-12-01T12:49:34.606Z,5.20
2017-12-01T12:52:02.082Z,5.20
2017-12-01T12:54:29.899Z,5.20
2017-12-01T12:56:58.524Z,5.20
2017-12-01T12:59:26.372Z,5.20
2017-12-01T13:01:54.037Z,5.20
2017-12-01T13:04:21.539Z,5.30
2017-12-01T13:06:49.022Z,5.30
2017-12-01T13:09:16.551Z,5.20
2017-12-01T13:11:44.216Z,5.20
2017-12-01T13:14:11.920Z,5.10
2017-12-01T13:16:39.921Z,5.00
2017-12-01T13:19:07.621Z,4.90
2017-12-01T13:21:35.293Z,4.90
2017-12-01T13:24:02.981Z,4.90
2017-12-01T13:26:30.668Z,4.90
2017-12-01T13:28:58.325Z,4.90
2017-12-01T13:31:25.993Z,4.90
2017-12-01T13:33:53.680Z,4.90
2017-12-01T13:36:21.679Z,5.00
2017-12-01T13:38:49.357Z,5.10
2017-12-01T13:41:17.021Z,5.10
2017-12-01T13:43:44.849Z,5.10
2017-12-01T13:46:12.523Z,5.10
2017-12-01T13:48:40.220Z,5.20
2017-12-01T13:51:08.209Z,5.20
2017-12-01T13:53:36.544Z,5.30
2017-12-01T13:56:04.038Z,5.30
2017-12-01T13:58:32.383Z,5.40
2017-12-01T14:01:00.842Z,5.70
2017-12-01T14:03:29.169Z,5.70
2017-12-01T14:05:57.530Z,5.70
2017-12-01T14:08:25.881Z,5.70
2017-12-01T14:10:54.216Z,5.70
2017-12-01T14:13:22.581Z,5.70
2017-12-01T14:15:51.091Z,5.70
2017-12-01T14:18:19.413Z,5.70
2017-12-01T14:20:47.753Z,5.70
2017-12-01T14:23:16.111Z,5.60
2017-12-01T14:25:44.455Z,5.50
2017-12-01T14:28:13.568Z,5.30
2017-12-01T14:30:41.901Z,5.30
2017-12-01T14:33:10.249Z,5.30
2017-12-01T14:35:38.902Z,5.20
2017-12-01T14:38:07.254Z,5.10
2017-12-01T14:40:36.341Z,5.00
2017-12-01T14:43:04.725Z,5.00
2017-12-01T14:45:33.159Z,5.00
2017-12-01T14:48:01.481Z,4.90
2017-12-01T14:50:29.821Z,4.90
2017-12-01T14:52:58.171Z,4.90
2017-12-01T14:55:26.489Z,4.90
2017-12-01T14:57:54.864Z,4.90
2017-12-01T15:00:23.187Z,5.00
2017-12-01T15:02:51.550Z,4.90
2017-12-01T15:05:19.871Z,4.90
2017-12-01T15:07:48.498Z,4.90
2017-12-01T15:10:16.835Z,4.90
2017-12-01T15:12:46.531Z,4.80
2017-12-01T15:15:14.871Z,4.90
2017-12-01T15:17:43.201Z,4.90
2017-12-01T15:20:11.542Z,4.90
2017-12-01T15:22:39.862Z,4.90
2017-12-01T15:25:08.214Z,4.90
2017-12-01T15:27:36.854Z,4.90
2017-12-01T15:30:05.378Z,4.90
2017-12-01T15:32:33.538Z,4.90
2017-12-01T15:35:01.873Z,4.80
2017-12-01T15:37:30.219Z,4.80
2017-12-01T15:39:58.396Z,4.80
2017-12-01T15:42:26.563Z,4.90
2017-12-01T15:44:55.475Z,5.00
2017-12-01T15:47:23.682Z,4.90
2017-12-01T15:49:51.840Z,5.00
2017-12-01T15:52:20.169Z,5.00
2017-12-01T15:54:48.499Z,4.90
2017-12-01T15:57:16.840Z,4.90
2017-12-01T15:59:45.257Z,4.90
2017-12-01T16:02:13.207Z,5.00
2017-12-01T16:04:42.479Z,5.00
2017-12-01T16:07:10.668Z,5.10
2017-12-01T16:09:38.490Z,5.20
2017-12-01T16:12:06.176Z,5.10
2017-12-01T16:14:33.937Z,5.20
2017-12-01T16:17:02.308Z,5.20
2017-12-01T16:19:30.005Z,5.20
2017-12-01T16:21:57.690Z,5.10
2017-12-01T16:24:25.361Z,5.10
2017-12-01T16:26:53.970Z,5.10
2017-12-01T16:29:21.659Z,5.00
2017-12-01T16:31:49.328Z,4.90
2017-12-01T16:34:17.670Z,4.90
2017-12-01T16:36:45.675Z,5.00
2017-12-01T16:39:13.672Z,5.00
2017-12-01T16:41:42.434Z,4.90
2017-12-01T16:44:10.785Z,4.90
2017-12-01T16:46:38.785Z,4.90
2017-12-01T16:49:07.163Z,4.90
2017-12-01T16:51:35.596Z,4.80
2017-12-01T16:54:03.615Z,4.80
2017-12-01T16:56:31.895Z,4.80
2017-12-01T16:58:59.925Z,4.80
2017-12-01T17:01:27.605Z,4.80
2017-12-01T17:03:55.086Z,4.70
2017-12-01T17:06:22.779Z,4.70
2017-12-01T17:08:50.462Z,4.80
2017-12-01T17:11:18.131Z,4.80
2017-12-01T17:13:45.805Z,4.80
2017-12-01T17:16:13.492Z,4.80
2017-12-01T17:18:41.183Z,4.80
2017-12-01T17:21:09.024Z,4.80
2017-12-01T17:23:36.698Z,4.80
2017-12-01T17:26:04.400Z,4.80
2017-12-01T17:28:32.579Z,4.90
2017-12-01T17:31:01.666Z,4.80
2017-12-01T17:33:29.342Z,4.80
2017-12-01T17:35:57.778Z,4.80
2017-12-01T17:38:25.783Z,4.80
2017-12-01T17:40:54.228Z,4.90
2017-12-01T17:43:21.903Z,4.90
2017-12-01T17:45:49.638Z,4.90
2017-12-01T17:48:17.319Z,5.00
2017-12-01T17:50:45.013Z,5.00
2017-12-01T17:53:12.698Z,4.90
2017-12-01T17:55:40.445Z,4.90
2017-12-01T17:58:08.445Z,4.90
2017-12-01T18:00:36.115Z,4.90
2017-12-01T18:03:03.773Z,4.90
2017-12-01T18:05:31.793Z,4.80
2017-12-01T18:08:00.281Z,4.80
2017-12-01T18:10:27.966Z,4.80
2017-12-01T18:12:56.116Z,4.80
2017-12-01T18:15:24.996Z,4.80
2017-12-01T18:17:53.322Z,4.70
2017-12-01T18:20:21.048Z,4.70
2017-12-01T18:22:48.942Z,4.70
2017-12-01T18:25:16.952Z,4.70
2017-12-01T18:27:44.663Z,4.70
2017-12-01T18:30:12.370Z,4.70
2017-12-01T18:32:40.560Z,4.70
2017-12-01T18:35:08.578Z,4.60
2017-12-01T18:37:36.700Z,4.50
2017-12-01T18:40:04.385Z,4.60
2017-12-01T18:42:32.062Z,4.50
2017-12-01T18:45:00.101Z,4.50
2017-12-01T18:47:27.598Z,4.40
2017-12-01T18:49:55.633Z,4.40
2017-12-01T18:52:23.641Z,4.40
2017-12-01T18:54:52.055Z,4.30
2017-12-01T18:57:19.777Z,4.30
2017-12-01T18:59:48.390Z,4.10
2017-12-01T19:02:16.057Z,4.00
2017-12-01T19:04:44.633Z,4.00
2017-12-01T19:07:12.558Z,3.90
2017-12-01T19:09:40.229Z,3.90
2017-12-01T19:12:07.931Z,3.90
2017-12-01T19:14:36.349Z,3.90
2017-12-01T19:17:04.015Z,3.90
2017-12-01T19:19:32.082Z,3.90
2017-12-01T19:21:59.557Z,3.90
2017-12-01T19:24:27.346Z,3.80
2017-12-01T19:26:55.442Z,3.70
2017-12-01T19:29:23.616Z,3.60
2017-12-01T19:31:51.749Z,3.60
2017-12-01T19:34:19.886Z,3.60
2017-12-01T19:36:47.554Z,3.60
2017-12-01T19:39:15.955Z,3.50
2017-12-01T19:41:43.727Z,3.50
2017-12-01T19:44:11.400Z,3.50
2017-12-01T19:46:39.119Z,3.40
2017-12-01T19:49:06.804Z,3.40
2017-12-01T19:51:36.427Z,3.40
2017-12-01T19:54:05.556Z,3.30
2017-12-01T19:56:33.251Z,3.30
2017-12-01T19:59:00.920Z,3.20
2017-12-01T20:01:30.494Z,3.10
2017-12-01T20:03:58.540Z,3.10
2017-12-01T20:06:26.268Z,3.10
2017-12-01T20:08:53.946Z,3.10
2017-12-01T20:11:21.654Z,3.20
2017-12-01T20:13:49.327Z,3.20
2017-12-01T20:16:17.055Z,3.30
2017-12-01T20:18:45.387Z,3.30
2017-12-01T20:21:13.091Z,3.30
2017-12-01T20:23:41.499Z,3.20
2017-12-01T20:26:08.989Z,3.20
2017-12-01T20:28:37.044Z,3.10
2017-12-01T20:31:04.718Z,3.10
2017-12-01T20:33:32.851Z,3.10
2017-12-01T20:36:01.188Z,3.10
2017-12-01T20:38:28.873Z,3.10
2017-12-01T20:40:56.542Z,3.00
2017-12-01T20:43:24.272Z,2.90
2017-12-01T20:45:52.374Z,2.90
2017-12-01T20:48:20.076Z,2.80
2017-12-01T20:50:48.921Z,2.80
2017-12-01T20:53:18.221Z,2.70
2017-12-01T20:55:45.930Z,2.70
2017-12-01T20:58:13.767Z,2.70
2017-12-01T21:00:41.436Z,2.70
2017-12-01T21:03:09.701Z,2.70
2017-12-01T21:05:37.466Z,2.80
2017-12-01T21:08:05.168Z,2.80
2017-12-01T21:10:33.625Z,3.00
2017-12-01T21:13:01.299Z,2.90
2017-12-01T21:15:30.402Z,3.20
2017-12-01T21:17:59.015Z,3.20
2017-12-01T21:20:26.738Z,3.20
2017-12-01T21:22:55.333Z,3.30
2017-12-01T21:25:23.374Z,3.30
2017-12-01T21:27:51.914Z,3.30
2017-12-01T21:30:19.678Z,3.40
2017-12-01T21:32:47.607Z,3.40
2017-12-01T21:35:15.461Z,3.50
2017-12-01T21:37:43.784Z,3.40
2017-12-01T21:40:11.933Z,3.40
2017-12-01T21:42:39.947Z,3.30
2017-12-01T21:45:08.115Z,3.30
2017-12-01T21:47:35.960Z,3.30
2017-12-01T21:50:04.033Z,3.20
2017-12-01T21:52:32.882Z,3.10
2017-12-01T21:55:01.850Z,3.10
2017-12-01T21:57:31.180Z,3.20
2017-12-01T21:59:59.557Z,3.20
2017-12-01T22:02:27.970Z,3.20
2017-12-01T22:04:56.343Z,3.20
2017-12-01T22:07:24.502Z,3.20
2017-12-01T22:09:52.863Z,3.00
2017-12-01T22:12:21.190Z,3.00
2017-12-01T22:14:49.357Z,2.90
2017-12-01T22:17:17.526Z,2.80
2017-12-01T22:19:45.878Z,2.80
2017-12-01T22:22:14.287Z,2.70
2017-12-01T22:24:42.644Z,2.60
2017-12-01T22:27:10.811Z,2.60
2017-12-01T22:29:39.287Z,2.60
2017-12-01T22:32:07.452Z,2.60
2017-12-01T22:34:36.580Z,2.50
2017-12-01T22:37:05.694Z,2.50
2017-12-01T22:39:34.113Z,2.40
2017-12-01T22:42:02.474Z,2.50
2017-12-01T22:44:30.832Z,2.50
2017-12-01T22:46:58.991Z,2.50
2017-12-01T22:49:26.834Z,2.40
2017-12-01T22:51:55.188Z,2.40
2017-12-01T22:54:23.725Z,2.30
2017-12-01T22:56:51.721Z,2.20
2017-12-01T22:59:20.066Z,2.20
2017-12-01T23:01:48.394Z,2.10
2017-12-01T23:04:16.839Z,2.10
2017-12-01T23:06:45.042Z,2.20
2017-12-01T23:09:13.406Z,2.10
2017-12-01T23:11:41.266Z,2.10
2017-12-01T23:14:09.620Z,2.10
2017-12-01T23:16:37.635Z,2.10
2017-12-01T23:19:06.263Z,2.10
2017-12-01T23:21:34.601Z,2.00
2017-12-01T23:24:03.728Z,1.90
2017-12-01T23:26:32.179Z,1.90
2017-12-01T23:29:00.552Z,2.00
2017-12-01T23:31:28.910Z,1.90
2017-12-01T23:33:57.434Z,1.90
2017-12-01T23:36:25.773Z,1.90
2017-12-01T23:38:54.890Z,1.90
2017-12-01T23:41:23.224Z,1.90
2017-12-01T23:43:51.583Z,1.90
2017-12-01T23:46:19.270Z,1.90
2017-12-01T23:48:47.856Z,1.90
2017-12-01T23:51:16.987Z,1.90
2017-12-01T23:53:45.366Z,1.80
2017-12-01T23:56:13.245Z,1.90
2017-12-01T23:58:41.659Z,1.90
